createdAt,value
2019-03-30T00:01:39.081Z,9.77
2019-03-30T00:04:06.614Z,7.60
2019-03-30T00:06:34.141Z,8.17
2019-03-30T00:09:01.407Z,8.40
2019-03-30T00:11:28.910Z,9.50
2019-03-30T00:13:56.174Z,9.90
2019-03-30T00:16:23.433Z,10.20
2019-03-30T00:18:50.748Z,9.20
2019-03-30T00:21:18.022Z,8.80
2019-03-30T00:23:45.534Z,10.10
2019-03-30T00:26:12.823Z,9.40
2019-03-30T00:28:40.261Z,10.20
2019-03-30T00:31:07.553Z,8.97
2019-03-30T00:33:34.799Z,9.27
2019-03-30T00:36:02.076Z,10.20
2019-03-30T00:38:29.318Z,8.30
2019-03-30T00:40:56.838Z,9.13
2019-03-30T00:43:24.116Z,10.13
2019-03-30T00:45:51.568Z,9.00
2019-03-30T00:48:18.820Z,9.27
2019-03-30T00:50:46.418Z,8.70
2019-03-30T00:53:13.666Z,10.43
2019-03-30T00:55:40.937Z,9.83
2019-03-30T00:58:08.188Z,9.03
2019-03-30T01:00:35.709Z,8.17
2019-03-30T01:03:03.036Z,9.20
2019-03-30T01:05:30.554Z,9.50
2019-03-30T01:07:57.813Z,10.40
2019-03-30T01:10:25.082Z,9.53
2019-03-30T01:12:52.590Z,10.40
2019-03-30T01:15:19.854Z,9.33
2019-03-30T01:17:47.173Z,9.67
2019-03-30T01:20:15.001Z,9.53
2019-03-30T01:22:42.352Z,8.70
2019-03-30T01:25:09.690Z,9.90
2019-03-30T01:27:36.933Z,9.60
2019-03-30T01:30:05.482Z,9.93
2019-03-30T01:32:35.039Z,10.70
2019-03-30T01:35:01.738Z,10.37
2019-03-30T01:37:29.064Z,11.10
2019-03-30T01:39:56.576Z,10.60
2019-03-30T01:42:23.826Z,10.07
2019-03-30T01:44:51.112Z,11.10
2019-03-30T01:47:18.362Z,10.17
2019-03-30T01:49:45.640Z,10.70
2019-03-30T01:52:12.890Z,9.70
2019-03-30T01:54:40.174Z,11.50
2019-03-30T01:57:07.672Z,11.80
2019-03-30T01:59:34.923Z,11.53
2019-03-30T02:02:02.522Z,12.30
2019-03-30T02:04:30.029Z,11.00
2019-03-30T02:06:57.374Z,12.47
2019-03-30T02:09:24.621Z,12.17
2019-03-30T02:11:51.893Z,12.97
2019-03-30T02:14:19.151Z,12.13
2019-03-30T02:16:46.692Z,13.37
2019-03-30T02:19:13.953Z,14.00
2019-03-30T02:21:41.222Z,14.00
2019-03-30T02:24:08.475Z,13.80
2019-03-30T02:26:35.745Z,13.87
2019-03-30T02:29:02.998Z,13.67
2019-03-30T02:31:30.267Z,12.50
2019-03-30T02:33:57.526Z,13.20
2019-03-30T02:36:24.798Z,13.00
2019-03-30T02:38:52.057Z,13.17
2019-03-30T02:41:19.327Z,14.00
2019-03-30T02:43:46.575Z,13.67
2019-03-30T02:46:13.857Z,15.17
2019-03-30T02:48:41.405Z,14.60
2019-03-30T02:51:09.074Z,13.30
2019-03-30T02:53:36.333Z,15.47
2019-03-30T02:56:03.937Z,14.13
2019-03-30T02:58:31.252Z,13.43
2019-03-30T03:00:58.527Z,14.67
2019-03-30T03:03:25.778Z,15.00
2019-03-30T03:05:53.056Z,14.57
2019-03-30T03:08:20.320Z,14.97
2019-03-30T03:10:47.590Z,14.80
2019-03-30T03:13:14.839Z,14.80
2019-03-30T03:15:42.118Z,14.23
2019-03-30T03:18:09.630Z,13.73
2019-03-30T03:20:36.890Z,14.20
2019-03-30T03:23:04.180Z,15.20
2019-03-30T03:25:31.491Z,15.10
2019-03-30T03:27:58.752Z,14.27
2019-03-30T03:30:26.024Z,14.70
2019-03-30T03:32:53.287Z,14.30
2019-03-30T03:35:20.704Z,14.57
2019-03-30T03:37:48.195Z,14.50
2019-03-30T03:40:15.515Z,15.10
2019-03-30T03:42:42.875Z,14.47
2019-03-30T03:45:10.261Z,15.13
2019-03-30T03:47:37.544Z,15.17
2019-03-30T03:50:05.379Z,14.80
2019-03-30T03:52:32.640Z,14.30
2019-03-30T03:55:00.572Z,15.13
2019-03-30T03:57:28.047Z,14.50
2019-03-30T03:59:57.145Z,13.87
2019-03-30T04:02:24.986Z,14.73
2019-03-30T04:04:53.775Z,14.93
2019-03-30T04:07:22.600Z,13.87
2019-03-30T04:09:51.401Z,14.90
2019-03-30T04:12:20.212Z,15.60
2019-03-30T04:14:49.002Z,15.63
2019-03-30T04:17:16.287Z,13.67
2019-03-30T04:19:43.541Z,14.60
2019-03-30T04:22:10.805Z,15.33
2019-03-30T04:24:38.062Z,15.00
2019-03-30T04:27:05.340Z,15.07
2019-03-30T04:29:32.605Z,15.70
2019-03-30T04:31:59.949Z,14.13
2019-03-30T04:34:27.203Z,15.40
2019-03-30T04:36:54.547Z,15.53
2019-03-30T04:39:21.792Z,15.23
2019-03-30T04:41:49.326Z,14.10
2019-03-30T04:44:16.586Z,14.13
2019-03-30T04:46:43.860Z,13.80
2019-03-30T04:49:11.118Z,13.00
2019-03-30T04:51:38.401Z,14.93
2019-03-30T04:54:05.650Z,12.97
2019-03-30T04:56:32.922Z,14.93
2019-03-30T04:59:00.433Z,14.27
2019-03-30T05:01:27.709Z,11.13
2019-03-30T05:03:55.230Z,13.63
2019-03-30T05:06:22.859Z,13.17
2019-03-30T05:08:50.365Z,13.00
2019-03-30T05:11:17.621Z,14.10
2019-03-30T05:13:44.890Z,12.70
2019-03-30T05:16:12.136Z,14.00
2019-03-30T05:18:39.412Z,13.03
2019-03-30T05:21:06.659Z,12.97
2019-03-30T05:23:33.936Z,13.17
2019-03-30T05:26:01.452Z,13.40
2019-03-30T05:28:28.970Z,15.67
2019-03-30T05:30:56.246Z,13.77
2019-03-30T05:33:23.498Z,13.53
2019-03-30T05:35:50.774Z,13.47
2019-03-30T05:38:18.045Z,13.93
2019-03-30T05:40:45.329Z,14.53
2019-03-30T05:43:12.577Z,12.67
2019-03-30T05:45:39.850Z,13.27
2019-03-30T05:48:07.102Z,13.57
2019-03-30T05:50:34.374Z,13.10
2019-03-30T05:53:01.900Z,13.20
2019-03-30T05:55:29.153Z,15.23
2019-03-30T05:57:56.431Z,15.73
2019-03-30T06:00:24.956Z,15.03
2019-03-30T06:02:52.467Z,14.60
2019-03-30T06:05:19.815Z,14.50
2019-03-30T06:07:47.066Z,15.10
2019-03-30T06:10:14.344Z,14.87
2019-03-30T06:12:41.847Z,15.30
2019-03-30T06:15:09.377Z,15.40
2019-03-30T06:17:36.630Z,15.07
2019-03-30T06:20:05.267Z,15.70
2019-03-30T06:22:40.068Z,16.03
2019-03-30T06:25:01.528Z,16.30
2019-03-30T06:27:28.841Z,15.90
2019-03-30T06:30:15.744Z,15.60
2019-03-30T06:32:44.024Z,16.07
2019-03-30T06:35:11.302Z,14.87
2019-03-30T06:37:38.557Z,16.13
2019-03-30T06:40:05.824Z,14.83
2019-03-30T06:42:33.106Z,15.27
2019-03-30T06:45:00.398Z,14.37
2019-03-30T06:47:27.962Z,14.90
2019-03-30T06:49:55.213Z,16.10
2019-03-30T06:52:22.748Z,15.50
2019-03-30T06:54:50.019Z,15.60
2019-03-30T06:57:17.533Z,16.30
2019-03-30T06:59:45.069Z,15.20
2019-03-30T07:02:12.638Z,15.17
2019-03-30T07:04:40.147Z,14.53
2019-03-30T07:07:09.293Z,14.73
2019-03-30T07:09:38.300Z,14.50
2019-03-30T07:12:05.844Z,14.70
2019-03-30T07:14:33.770Z,14.77
2019-03-30T07:17:02.661Z,14.57
2019-03-30T07:19:31.458Z,14.50
2019-03-30T07:21:58.739Z,15.63
2019-03-30T07:24:26.267Z,14.47
2019-03-30T07:26:53.791Z,14.50
2019-03-30T07:29:21.318Z,14.60
2019-03-30T07:31:48.853Z,14.53
2019-03-30T07:34:16.107Z,16.10
2019-03-30T07:36:43.532Z,15.20
2019-03-30T07:39:10.856Z,15.40
2019-03-30T07:41:38.201Z,13.70
2019-03-30T07:44:05.706Z,15.20
2019-03-30T07:46:32.986Z,13.47
2019-03-30T07:49:00.241Z,13.90
2019-03-30T07:51:27.518Z,15.20
2019-03-30T07:53:54.852Z,13.80
2019-03-30T07:56:22.209Z,14.50
2019-03-30T07:58:49.717Z,13.80
2019-03-30T08:01:16.987Z,14.87
2019-03-30T08:03:44.233Z,13.83
2019-03-30T08:06:11.511Z,13.30
2019-03-30T08:08:38.829Z,13.53
2019-03-30T08:11:06.107Z,13.70
2019-03-30T08:13:33.353Z,14.37
2019-03-30T08:16:00.682Z,14.37
2019-03-30T08:18:27.954Z,13.53
2019-03-30T08:20:55.212Z,15.03
2019-03-30T08:23:22.485Z,13.93
2019-03-30T08:25:49.994Z,13.77
2019-03-30T08:28:17.266Z,12.93
2019-03-30T08:30:44.522Z,12.73
2019-03-30T08:33:11.802Z,12.27
2019-03-30T08:35:39.060Z,13.90
2019-03-30T08:38:06.322Z,13.47
2019-03-30T08:40:33.592Z,13.37
2019-03-30T08:43:00.866Z,12.90
2019-03-30T08:45:28.122Z,13.10
2019-03-30T08:47:55.648Z,13.40
2019-03-30T08:50:22.906Z,12.87
2019-03-30T08:52:50.173Z,11.90
2019-03-30T08:55:17.831Z,12.70
2019-03-30T08:57:45.090Z,12.60
2019-03-30T09:00:12.460Z,13.60
2019-03-30T09:02:40.043Z,13.53
2019-03-30T09:05:07.362Z,12.30
2019-03-30T09:07:34.613Z,12.37
2019-03-30T09:10:01.890Z,12.67
2019-03-30T09:12:29.136Z,13.13
2019-03-30T09:14:56.412Z,13.60
2019-03-30T09:17:23.660Z,14.00
2019-03-30T09:19:51.195Z,13.53
2019-03-30T09:22:18.701Z,14.30
2019-03-30T09:24:46.040Z,13.17
2019-03-30T09:27:13.294Z,13.27
2019-03-30T09:29:40.819Z,12.60
2019-03-30T09:32:14.824Z,12.90
2019-03-30T09:34:37.314Z,12.37
2019-03-30T09:37:04.638Z,13.20
2019-03-30T09:39:31.974Z,12.40
2019-03-30T09:41:59.222Z,12.00
2019-03-30T09:44:26.491Z,12.20
2019-03-30T09:46:53.748Z,12.20
2019-03-30T09:49:21.019Z,10.90
2019-03-30T09:51:48.275Z,12.10
2019-03-30T09:54:23.457Z,12.33
2019-03-30T09:56:44.771Z,11.37
2019-03-30T09:59:12.047Z,11.50
2019-03-30T10:01:39.295Z,10.97
2019-03-30T10:04:06.653Z,12.43
2019-03-30T10:06:34.805Z,12.17
2019-03-30T10:09:02.232Z,11.33
2019-03-30T10:11:29.722Z,11.80
2019-03-30T10:13:57.002Z,11.50
2019-03-30T10:16:24.501Z,12.53
2019-03-30T10:18:52.002Z,11.30
2019-03-30T10:21:19.278Z,12.20
2019-03-30T10:23:46.782Z,10.83
2019-03-30T10:26:14.050Z,11.13
2019-03-30T10:28:41.318Z,11.33
2019-03-30T10:31:08.585Z,12.50
2019-03-30T10:33:35.848Z,11.70
2019-03-30T10:36:03.113Z,10.80
2019-03-30T10:38:30.361Z,10.33
2019-03-30T10:40:57.633Z,10.53
2019-03-30T10:43:24.900Z,10.33
2019-03-30T10:45:52.163Z,10.13
2019-03-30T10:48:19.420Z,11.57
2019-03-30T10:50:46.693Z,10.67
2019-03-30T10:53:13.944Z,11.30
2019-03-30T10:55:41.228Z,12.97
2019-03-30T10:58:08.723Z,12.50
2019-03-30T11:00:36.927Z,11.70
2019-03-30T11:03:04.242Z,10.03
2019-03-30T11:05:31.517Z,10.20
2019-03-30T11:07:58.766Z,10.90
2019-03-30T11:10:26.311Z,10.40
2019-03-30T11:12:53.820Z,10.53
2019-03-30T11:15:21.094Z,10.70
2019-03-30T11:17:48.625Z,10.07
2019-03-30T11:20:15.894Z,11.53
2019-03-30T11:22:43.154Z,11.10
2019-03-30T11:25:10.424Z,10.70
2019-03-30T11:27:37.666Z,9.87
2019-03-30T11:30:05.913Z,10.10
2019-03-30T11:32:34.415Z,10.00
2019-03-30T11:35:02.000Z,11.20
2019-03-30T11:37:29.258Z,10.63
2019-03-30T11:39:56.789Z,11.40
2019-03-30T11:42:24.030Z,9.93
2019-03-30T11:44:51.302Z,11.40
2019-03-30T11:47:18.563Z,11.57
2019-03-30T11:49:45.896Z,10.70
2019-03-30T11:52:13.426Z,11.60
2019-03-30T11:54:40.683Z,11.33
2019-03-30T11:57:07.958Z,10.53
2019-03-30T11:59:35.214Z,12.60
2019-03-30T12:02:02.734Z,11.50
2019-03-30T12:04:29.998Z,10.80
2019-03-30T12:06:57.267Z,11.00
2019-03-30T12:09:24.526Z,11.27
2019-03-30T12:11:51.804Z,10.97
2019-03-30T12:14:19.055Z,10.80
2019-03-30T12:16:46.334Z,10.70
2019-03-30T12:19:13.598Z,10.93
2019-03-30T12:21:40.870Z,10.33
2019-03-30T12:24:08.695Z,11.60
2019-03-30T12:26:35.961Z,9.80
2019-03-30T12:29:03.201Z,8.80
2019-03-30T12:31:30.615Z,9.70
2019-03-30T12:33:58.119Z,10.50
2019-03-30T12:36:25.662Z,11.00
2019-03-30T12:38:53.167Z,11.37
2019-03-30T12:41:20.443Z,10.70
2019-03-30T12:43:47.693Z,10.97
2019-03-30T12:46:14.965Z,12.00
2019-03-30T12:48:42.219Z,11.87
2019-03-30T12:51:09.481Z,12.77
2019-03-30T12:53:49.566Z,11.30
2019-03-30T12:56:08.866Z,12.50
2019-03-30T12:58:34.787Z,11.90
2019-03-30T13:01:02.054Z,9.97
2019-03-30T13:03:29.302Z,9.40
2019-03-30T13:05:56.579Z,9.67
2019-03-30T13:08:23.826Z,11.53
2019-03-30T13:10:51.102Z,10.83
2019-03-30T13:13:18.351Z,9.67
2019-03-30T13:15:45.642Z,8.60
2019-03-30T13:18:12.885Z,9.20
2019-03-30T13:20:40.434Z,10.13
2019-03-30T13:23:07.686Z,10.00
2019-03-30T13:25:34.955Z,9.67
2019-03-30T13:28:02.210Z,9.43
2019-03-30T13:30:29.461Z,10.00
2019-03-30T13:32:57.004Z,9.03
2019-03-30T13:35:24.258Z,8.80
2019-03-30T13:37:51.513Z,9.00
2019-03-30T13:40:18.787Z,9.43
2019-03-30T13:42:46.035Z,9.00
2019-03-30T13:45:13.974Z,9.47
2019-03-30T13:47:41.219Z,9.67
2019-03-30T13:50:09.351Z,8.57
2019-03-30T13:52:36.613Z,8.80
2019-03-30T13:55:04.486Z,9.20
2019-03-30T13:57:32.007Z,8.70
2019-03-30T13:59:59.261Z,9.00
2019-03-30T14:02:26.527Z,8.60
2019-03-30T14:04:53.859Z,8.90
2019-03-30T14:07:21.122Z,9.70
2019-03-30T14:09:48.370Z,8.97
2019-03-30T14:12:15.646Z,9.70
2019-03-30T14:14:42.898Z,9.50
2019-03-30T14:17:10.170Z,10.17
2019-03-30T14:19:37.413Z,8.87
2019-03-30T14:22:04.682Z,7.70
2019-03-30T14:24:31.939Z,7.23
2019-03-30T14:26:59.197Z,8.10
2019-03-30T14:29:26.453Z,7.63
2019-03-30T14:31:53.727Z,6.80
2019-03-30T14:34:21.239Z,8.90
2019-03-30T14:36:48.497Z,8.27
2019-03-30T14:39:15.743Z,9.20
2019-03-30T14:41:43.021Z,7.93
2019-03-30T14:44:10.271Z,7.60
2019-03-30T14:46:37.622Z,8.17
2019-03-30T14:49:05.783Z,7.80
2019-03-30T14:51:33.046Z,7.77
2019-03-30T14:54:00.294Z,7.80
2019-03-30T14:56:27.566Z,6.73
2019-03-30T14:59:09.138Z,6.80
2019-03-30T15:01:24.050Z,5.90
2019-03-30T15:03:51.378Z,5.60
2019-03-30T15:06:18.706Z,6.50
2019-03-30T15:08:46.229Z,4.97
2019-03-30T15:11:13.722Z,5.97
2019-03-30T15:13:40.981Z,7.43
2019-03-30T15:16:08.225Z,5.20
2019-03-30T15:18:35.751Z,5.90
2019-03-30T15:21:02.994Z,5.07
2019-03-30T15:23:30.502Z,5.20
2019-03-30T15:25:57.742Z,4.70
2019-03-30T15:28:25.104Z,5.23
2019-03-30T15:30:52.345Z,4.70
2019-03-30T15:33:19.863Z,5.10
2019-03-30T15:35:47.378Z,5.80
2019-03-30T15:38:14.643Z,5.80
2019-03-30T15:40:41.892Z,5.00
2019-03-30T15:43:09.154Z,5.00
2019-03-30T15:45:36.655Z,3.90
2019-03-30T15:48:03.991Z,3.90
2019-03-30T15:50:31.237Z,4.10
2019-03-30T15:52:58.502Z,3.53
2019-03-30T15:55:25.991Z,3.50
2019-03-30T15:57:53.258Z,3.57
2019-03-30T16:00:20.751Z,3.30
2019-03-30T16:02:48.338Z,3.20
2019-03-30T16:05:16.002Z,2.90
2019-03-30T16:07:43.584Z,3.53
2019-03-30T16:10:11.334Z,3.77
2019-03-30T16:12:38.691Z,3.07
2019-03-30T16:15:06.298Z,4.30
2019-03-30T16:17:33.820Z,3.10
2019-03-30T16:20:01.149Z,2.90
2019-03-30T16:22:28.658Z,2.80
2019-03-30T16:24:55.993Z,3.10
2019-03-30T16:27:29.263Z,2.87
2019-03-30T16:29:52.469Z,3.50
2019-03-30T16:32:21.276Z,2.83
2019-03-30T16:34:51.221Z,3.53
2019-03-30T16:37:19.491Z,3.20
2019-03-30T16:39:48.880Z,3.37
2019-03-30T16:42:16.231Z,3.07
2019-03-30T16:44:43.750Z,3.17
2019-03-30T16:47:11.006Z,3.10
2019-03-30T16:49:38.516Z,2.73
2019-03-30T16:52:06.204Z,3.00
2019-03-30T16:54:33.667Z,2.60
2019-03-30T16:57:01.362Z,3.50
2019-03-30T16:59:28.610Z,3.50
2019-03-30T17:01:55.874Z,3.60
2019-03-30T17:04:23.374Z,3.53
2019-03-30T17:06:50.631Z,3.80
2019-03-30T17:09:17.921Z,3.23
2019-03-30T17:11:45.209Z,3.90
2019-03-30T17:14:12.457Z,3.73
2019-03-30T17:16:39.721Z,3.23
2019-03-30T17:19:07.206Z,3.63
2019-03-30T17:21:34.469Z,3.57
2019-03-30T17:24:01.721Z,3.20
2019-03-30T17:26:29.302Z,3.90
2019-03-30T17:28:56.564Z,3.20
2019-03-30T17:31:24.147Z,3.57
2019-03-30T17:33:51.641Z,3.13
2019-03-30T17:36:18.906Z,4.00
2019-03-30T17:38:46.423Z,3.93
2019-03-30T17:41:13.942Z,3.70
2019-03-30T17:43:41.187Z,3.50
2019-03-30T17:46:08.456Z,4.03
2019-03-30T17:48:35.958Z,3.77
2019-03-30T17:51:03.472Z,3.43
2019-03-30T17:53:30.792Z,3.40
2019-03-30T17:56:01.610Z,3.33
2019-03-30T17:58:27.043Z,4.60
2019-03-30T18:00:54.366Z,3.30
2019-03-30T18:03:21.621Z,3.57
2019-03-30T18:05:48.887Z,3.63
2019-03-30T18:08:16.130Z,3.50
2019-03-30T18:10:43.644Z,3.30
2019-03-30T18:13:10.891Z,3.10
2019-03-30T18:15:38.205Z,3.90
2019-03-30T18:18:05.469Z,2.70
2019-03-30T18:20:32.711Z,3.33
2019-03-30T18:22:59.973Z,3.30
2019-03-30T18:25:27.220Z,3.00
2019-03-30T18:27:54.481Z,3.60
2019-03-30T18:30:23.538Z,3.80
2019-03-30T18:32:53.343Z,3.10
2019-03-30T18:35:19.814Z,3.30
2019-03-30T18:37:47.146Z,3.10
2019-03-30T18:40:15.930Z,2.87
2019-03-30T18:42:43.205Z,3.20
2019-03-30T18:45:12.245Z,3.93
2019-03-30T18:47:39.502Z,3.57
2019-03-30T18:50:07.340Z,3.10
2019-03-30T18:52:35.303Z,3.60
2019-03-30T18:55:02.625Z,3.40
2019-03-30T18:57:29.896Z,3.70
2019-03-30T18:59:57.142Z,4.10
2019-03-30T19:02:24.410Z,3.43
2019-03-30T19:04:51.658Z,4.03
2019-03-30T19:07:18.921Z,3.77
2019-03-30T19:09:46.425Z,3.80
2019-03-30T19:12:13.673Z,3.70
2019-03-30T19:14:40.937Z,3.70
2019-03-30T19:17:08.187Z,4.37
2019-03-30T19:19:35.445Z,3.87
2019-03-30T19:22:02.686Z,4.17
2019-03-30T19:24:29.949Z,3.70
2019-03-30T19:26:57.194Z,4.40
2019-03-30T19:29:24.458Z,4.87
2019-03-30T19:31:51.946Z,3.70
2019-03-30T19:34:19.483Z,4.40
2019-03-30T19:36:46.721Z,4.43
2019-03-30T19:39:14.387Z,4.43
2019-03-30T19:41:41.722Z,4.20
2019-03-30T19:44:09.243Z,4.80
2019-03-30T19:46:37.507Z,5.10
2019-03-30T19:49:07.378Z,4.27
2019-03-30T19:51:35.036Z,4.07
2019-03-30T19:54:02.307Z,4.77
2019-03-30T19:56:29.545Z,5.07
2019-03-30T19:59:10.118Z,5.10
2019-03-30T20:01:25.785Z,5.53
2019-03-30T20:03:53.049Z,5.03
2019-03-30T20:06:20.294Z,4.80
2019-03-30T20:08:47.536Z,5.00
2019-03-30T20:11:14.802Z,4.77
2019-03-30T20:13:42.046Z,3.97
2019-03-30T20:16:09.314Z,4.03
2019-03-30T20:18:36.819Z,4.10
2019-03-30T20:21:04.157Z,4.50
2019-03-30T20:23:31.402Z,4.40
2019-03-30T20:25:58.665Z,4.50
2019-03-30T20:28:25.912Z,4.73
2019-03-30T20:30:53.178Z,5.40
2019-03-30T20:33:20.682Z,5.20
2019-03-30T20:35:47.938Z,4.60
2019-03-30T20:38:15.183Z,4.07
2019-03-30T20:40:42.447Z,4.50
2019-03-30T20:43:09.693Z,4.90
2019-03-30T20:45:37.218Z,4.80
2019-03-30T20:48:04.531Z,4.60
2019-03-30T20:50:31.801Z,5.13
2019-03-30T20:52:59.038Z,4.30
2019-03-30T20:55:26.297Z,5.27
2019-03-30T20:57:53.619Z,4.70
2019-03-30T21:00:21.020Z,4.90
2019-03-30T21:02:48.260Z,5.17
2019-03-30T21:05:15.524Z,4.90
2019-03-30T21:07:42.774Z,4.80
2019-03-30T21:10:11.382Z,5.23
2019-03-30T21:12:38.918Z,4.60
2019-03-30T21:15:06.232Z,5.37
2019-03-30T21:17:33.496Z,4.87
2019-03-30T21:20:00.767Z,5.00
2019-03-30T21:22:28.026Z,4.23
2019-03-30T21:24:55.267Z,5.30
2019-03-30T21:27:22.534Z,5.20
2019-03-30T21:29:54.991Z,5.20
2019-03-30T21:32:18.848Z,6.10
2019-03-30T21:34:46.074Z,5.57
2019-03-30T21:37:13.344Z,5.57
2019-03-30T21:39:40.834Z,6.20
2019-03-30T21:42:08.282Z,5.90
2019-03-30T21:44:36.050Z,5.40
2019-03-30T21:47:06.052Z,5.30
2019-03-30T21:49:33.431Z,5.63
2019-03-30T21:52:04.274Z,6.20
2019-03-30T21:54:51.456Z,6.90
2019-03-30T21:57:19.564Z,6.47
2019-03-30T21:59:46.869Z,6.53
2019-03-30T22:02:14.133Z,6.83
2019-03-30T22:04:41.377Z,7.60
2019-03-30T22:07:08.640Z,7.10
2019-03-30T22:09:35.885Z,7.60
2019-03-30T22:12:03.151Z,7.00
2019-03-30T22:14:30.395Z,6.97
2019-03-30T22:16:57.903Z,7.77
2019-03-30T22:19:25.150Z,6.23
2019-03-30T22:21:52.489Z,7.33
2019-03-30T22:24:20.079Z,8.20
2019-03-30T22:26:47.343Z,8.30
2019-03-30T22:29:14.609Z,8.30
2019-03-30T22:31:41.860Z,7.60
2019-03-30T22:34:09.121Z,9.10
2019-03-30T22:36:36.374Z,8.70
2019-03-30T22:39:05.589Z,8.70
2019-03-30T22:41:32.829Z,8.63
2019-03-30T22:44:00.100Z,8.60
2019-03-30T22:46:27.369Z,8.83
2019-03-30T22:48:54.629Z,8.70
2019-03-30T22:51:21.907Z,8.80
2019-03-30T22:53:49.190Z,9.53
2019-03-30T22:56:16.466Z,9.70
2019-03-30T22:58:43.987Z,9.80
2019-03-30T23:01:15.574Z,9.80
2019-03-30T23:03:42.839Z,9.03
2019-03-30T23:06:10.093Z,9.40
2019-03-30T23:08:37.365Z,9.50
2019-03-30T23:11:05.048Z,11.00
2019-03-30T23:13:32.288Z,9.40
2019-03-30T23:15:59.567Z,11.03
2019-03-30T23:18:26.809Z,9.37
2019-03-30T23:20:54.336Z,9.53
2019-03-30T23:23:21.642Z,10.30
2019-03-30T23:25:49.166Z,10.67
2019-03-30T23:28:16.410Z,9.90
2019-03-30T23:30:54.027Z,10.70
2019-03-30T23:33:12.654Z,11.10
2019-03-30T23:35:39.922Z,10.03
2019-03-30T23:38:07.818Z,10.87
2019-03-30T23:40:35.089Z,11.00
2019-03-30T23:43:02.346Z,10.70
2019-03-30T23:45:29.889Z,12.60
2019-03-30T23:47:57.185Z,11.83
2019-03-30T23:50:24.463Z,10.23
2019-03-30T23:52:51.711Z,10.23
2019-03-30T23:55:18.982Z,11.50
2019-03-30T23:57:46.239Z,11.53
